Página principal
METAR-TAF:

METAR-TAF

Aeroportos :

Aeroporto Internacional de Hong Kong

Hong Kong, China

latitude: 22-19N, longitude: 113-55E, altura: 9 m

Observação actual do tempo

O boletim foi feito há 11 minutos, às 00:00 UTC
Vento 3 kt com direcção variável
Temperatura 29°C
Humidade 74%
Pressão 1012 hPa
Visibilidade 10 km ou mais
Poucas nuvensa uma altura de 1200 ft

METAR: VHHH 200000Z VRB03KT 9999 FEW012 29/24 Q1012 NOSIG

Hora: 08:11 (00:11 UTC)

Previsão

O boletim foi feito há 1 hora e 11 minutos, às 23:00 UTC
Previsão válida de 20 às 00 UTC a 21 às 06 UTC
Vento 5 kt com direcção variável
Visibilidade: 7000 m
Poucas nuvensa uma altura de 3000 ft
Tornando-se
de 20 às 02 UTC a 20 às 04 UTC
Vento 10 kt de oes-sudoeste
Temporariamente
de 21 às 03 UTC a 21 às 06 UTC
Vento 10 kt de oes-sudoeste

TAF: VHHH 192300Z 2000/2106 VRB05KT 7000 FEW030 TX32/2006Z TX33/2106Z TN27/2022Z BECMG 2002/2004 24010KT TEMPO 2103/2106 24010KT

Observações e previsões do tempo de mais de 4000 aeroportos (mensagens METAR e TAF).

As estações disponíveis são os pontos amarelos e vermelhos sobre o mapa.

Mova o rato sobre o mapa para ver o nome da estação.

Depois clique no ponto para visualizar as observações e previsões meteorológicas.

Para alterar o mapa : clique nos botões verdes com uma cruz preta para aumentar o zoom; no botão verde com uma pitada de zoom; ou nas setas verdes para mapas adjacentes.


METAR-TAF: